sensor_id;sensor_type;location;lat;lon;timestamp;P1;durP1;ratioP1;P2;durP2;ratioP2
4742;SDS011;24293;48.154;7.748;2023-08-01T00:00:17;7.97;;;4.00;;
4742;SDS011;24293;48.154;7.748;2023-08-01T00:02:46;10.43;;;3.43;;
4742;SDS011;24293;48.154;7.748;2023-08-01T00:05:12;8.13;;;4.10;;
4742;SDS011;24293;48.154;7.748;2023-08-01T00:07:39;8.70;;;3.90;;
4742;SDS011;24293;48.154;7.748;2023-08-01T00:10:06;8.90;;;4.10;;
4742;SDS011;24293;48.154;7.748;2023-08-01T00:12:32;8.60;;;4.13;;
4742;SDS011;24293;48.154;7.748;2023-08-01T00:14:59;9.17;;;3.70;;
4742;SDS011;24293;48.154;7.748;2023-08-01T00:17:27;7.63;;;3.40;;
4742;SDS011;24293;48.154;7.748;2023-08-01T00:19:54;7.77;;;4.43;;
4742;SDS011;24293;48.154;7.748;2023-08-01T00:22:21;8.93;;;4.07;;
4742;SDS011;24293;48.154;7.748;2023-08-01T00:24:47;10.03;;;3.80;;
4742;SDS011;24293;48.154;7.748;2023-08-01T00:27:14;7.63;;;3.60;;
4742;SDS011;24293;48.154;7.748;2023-08-01T00:29:41;7.50;;;3.90;;
4742;SDS011;24293;48.154;7.748;2023-08-01T00:32:07;8.13;;;4.17;;
4742;SDS011;24293;48.154;7.748;2023-08-01T00:34:37;9.23;;;3.90;;
4742;SDS011;24293;48.154;7.748;2023-08-01T00:37:04;9.40;;;4.30;;
4742;SDS011;24293;48.154;7.748;2023-08-01T00:39:31;12.33;;;4.70;;
4742;SDS011;24293;48.154;7.748;2023-08-01T00:41:58;8.23;;;3.67;;
4742;SDS011;24293;48.154;7.748;2023-08-01T00:44:28;9.13;;;4.00;;
4742;SDS011;24293;48.154;7.748;2023-08-01T00:46:54;10.83;;;4.43;;
4742;SDS011;24293;48.154;7.748;2023-08-01T00:49:21;8.93;;;3.50;;
4742;SDS011;24293;48.154;7.748;2023-08-01T00:51:49;9.57;;;4.00;;
4742;SDS011;24293;48.154;7.748;2023-08-01T00:54:15;10.07;;;3.63;;
4742;SDS011;24293;48.154;7.748;2023-08-01T00:56:42;8.30;;;3.80;;
4742;SDS011;24293;48.154;7.748;2023-08-01T00:59:10;8.73;;;3.33;;
4742;SDS011;24293;48.154;7.748;2023-08-01T01:01:36;9.20;;;4.20;;
4742;SDS011;24293;48.154;7.748;2023-08-01T01:04:03;8.43;;;3.67;;
4742;SDS011;24293;48.154;7.748;2023-08-01T01:06:31;8.80;;;3.57;;
4742;SDS011;24293;48.154;7.748;2023-08-01T01:08:59;6.93;;;2.97;;
4742;SDS011;24293;48.154;7.748;2023-08-01T01:11:26;10.17;;;3.13;;
4742;SDS011;24293;48.154;7.748;2023-08-01T01:13:53;9.57;;;3.53;;
4742;SDS011;24293;48.154;7.748;2023-08-01T01:16:26;8.03;;;3.40;;
4742;SDS011;24293;48.154;7.748;2023-08-01T01:18:53;8.87;;;3.77;;
4742;SDS011;24293;48.154;7.748;2023-08-01T01:21:21;8.10;;;3.60;;
4742;SDS011;24293;48.154;7.748;2023-08-01T01:23:47;5.63;;;2.90;;
4742;SDS011;24293;48.154;7.748;2023-08-01T01:26:15;7.30;;;3.40;;
4742;SDS011;24293;48.154;7.748;2023-08-01T01:28:45;6.83;;;3.20;;
4742;SDS011;24293;48.154;7.748;2023-08-01T01:31:12;9.60;;;4.10;;
4742;SDS011;24293;48.154;7.748;2023-08-01T01:33:39;10.07;;;3.27;;
4742;SDS011;24293;48.154;7.748;2023-08-01T01:36:06;8.30;;;3.63;;
4742;SDS011;24293;48.154;7.748;2023-08-01T01:38:33;9.67;;;3.40;;
4742;SDS011;24293;48.154;7.748;2023-08-01T01:41:00;7.17;;;3.00;;
4742;SDS011;24293;48.154;7.748;2023-08-01T01:43:26;8.77;;;3.50;;
4742;SDS011;24293;48.154;7.748;2023-08-01T01:45:53;9.27;;;3.60;;
4742;SDS011;24293;48.154;7.748;2023-08-01T01:48:19;9.17;;;3.80;;
4742;SDS011;24293;48.154;7.748;2023-08-01T01:50:46;7.20;;;3.70;;
4742;SDS011;24293;48.154;7.748;2023-08-01T01:53:12;5.97;;;3.13;;
4742;SDS011;24293;48.154;7.748;2023-08-01T01:55:40;6.60;;;3.10;;
4742;SDS011;24293;48.154;7.748;2023-08-01T01:58:06;7.60;;;3.40;;
4742;SDS011;24293;48.154;7.748;2023-08-01T02:00:34;7.13;;;3.43;;
4742;SDS011;24293;48.154;7.748;2023-08-01T02:03:03;6.67;;;3.00;;
4742;SDS011;24293;48.154;7.748;2023-08-01T02:05:32;8.83;;;3.27;;
4742;SDS011;24293;48.154;7.748;2023-08-01T02:07:59;8.67;;;3.57;;
4742;SDS011;24293;48.154;7.748;2023-08-01T02:10:25;9.00;;;3.47;;
4742;SDS011;24293;48.154;7.748;2023-08-01T02:12:53;7.30;;;3.47;;
4742;SDS011;24293;48.154;7.748;2023-08-01T02:15:19;9.00;;;3.40;;
4742;SDS011;24293;48.154;7.748;2023-08-01T02:17:46;6.53;;;3.20;;
4742;SDS011;24293;48.154;7.748;2023-08-01T02:20:12;9.50;;;3.20;;
4742;SDS011;24293;48.154;7.748;2023-08-01T02:22:39;7.77;;;3.40;;
4742;SDS011;24293;48.154;7.748;2023-08-01T02:25:05;8.80;;;3.30;;
4742;SDS011;24293;48.154;7.748;2023-08-01T02:27:32;10.80;;;3.40;;
4742;SDS011;24293;48.154;7.748;2023-08-01T02:30:00;8.17;;;3.27;;
4742;SDS011;24293;48.154;7.748;2023-08-01T02:32:27;6.80;;;2.87;;
4742;SDS011;24293;48.154;7.748;2023-08-01T02:34:53;5.80;;;2.90;;
4742;SDS011;24293;48.154;7.748;2023-08-01T02:37:28;9.87;;;3.63;;
4742;SDS011;24293;48.154;7.748;2023-08-01T02:39:55;8.37;;;3.63;;
4742;SDS011;24293;48.154;7.748;2023-08-01T02:42:21;5.87;;;2.90;;
4742;SDS011;24293;48.154;7.748;2023-08-01T02:44:48;10.60;;;3.70;;
4742;SDS011;24293;48.154;7.748;2023-08-01T02:47:16;9.10;;;3.00;;
4742;SDS011;24293;48.154;7.748;2023-08-01T02:49:42;8.90;;;3.10;;
4742;SDS011;24293;48.154;7.748;2023-08-01T02:52:09;10.50;;;3.27;;
4742;SDS011;24293;48.154;7.748;2023-08-01T02:54:35;9.20;;;3.30;;
4742;SDS011;24293;48.154;7.748;2023-08-01T02:57:02;7.50;;;3.07;;
4742;SDS011;24293;48.154;7.748;2023-08-01T02:59:28;8.67;;;3.27;;
4742;SDS011;24293;48.154;7.748;2023-08-01T03:01:58;8.07;;;3.53;;
4742;SDS011;24293;48.154;7.748;2023-08-01T03:04:27;8.37;;;3.57;;
4742;SDS011;24293;48.154;7.748;2023-08-01T03:06:54;10.90;;;3.67;;
4742;SDS011;24293;48.154;7.748;2023-08-01T03:09:20;9.73;;;3.60;;
4742;SDS011;24293;48.154;7.748;2023-08-01T03:11:47;6.73;;;3.10;;
4742;SDS011;24293;48.154;7.748;2023-08-01T03:14:14;8.37;;;3.20;;
4742;SDS011;24293;48.154;7.748;2023-08-01T03:16:42;8.80;;;3.70;;
4742;SDS011;24293;48.154;7.748;2023-08-01T03:19:08;7.27;;;3.43;;
4742;SDS011;24293;48.154;7.748;2023-08-01T03:21:36;8.77;;;3.30;;
4742;SDS011;24293;48.154;7.748;2023-08-01T03:24:03;10.80;;;3.90;;
4742;SDS011;24293;48.154;7.748;2023-08-01T03:26:33;10.17;;;3.43;;
4742;SDS011;24293;48.154;7.748;2023-08-01T03:29:00;9.20;;;3.43;;
4742;SDS011;24293;48.154;7.748;2023-08-01T03:31:26;10.43;;;3.13;;
4742;SDS011;24293;48.154;7.748;2023-08-01T03:33:53;10.77;;;3.37;;
4742;SDS011;24293;48.154;7.748;2023-08-01T03:36:21;15.10;;;4.20;;
4742;SDS011;24293;48.154;7.748;2023-08-01T03:38:49;8.07;;;3.50;;
4742;SDS011;24293;48.154;7.748;2023-08-01T03:41:16;8.50;;;3.50;;
4742;SDS011;24293;48.154;7.748;2023-08-01T03:43:42;10.23;;;3.50;;
4742;SDS011;24293;48.154;7.748;2023-08-01T03:46:10;11.60;;;3.47;;
4742;SDS011;24293;48.154;7.748;2023-08-01T03:48:37;10.10;;;3.70;;
4742;SDS011;24293;48.154;7.748;2023-08-01T03:51:03;9.87;;;3.63;;
4742;SDS011;24293;48.154;7.748;2023-08-01T03:53:30;12.13;;;3.53;;
4742;SDS011;24293;48.154;7.748;2023-08-01T03:55:57;8.27;;;3.60;;
4742;SDS011;24293;48.154;7.748;2023-08-01T03:58:24;8.40;;;3.20;;
4742;SDS011;24293;48.154;7.748;2023-08-01T04:00:50;12.47;;;4.10;;
4742;SDS011;24293;48.154;7.748;2023-08-01T04:03:17;12.63;;;3.87;;
4742;SDS011;24293;48.154;7.748;2023-08-01T04:05:43;10.83;;;3.60;;
4742;SDS011;24293;48.154;7.748;2023-08-01T04:08:10;9.70;;;3.47;;
4742;SDS011;24293;48.154;7.748;2023-08-01T04:10:36;13.90;;;3.70;;
4742;SDS011;24293;48.154;7.748;2023-08-01T04:13:04;9.10;;;3.87;;
4742;SDS011;24293;48.154;7.748;2023-08-01T04:15:30;10.80;;;3.90;;
4742;SDS011;24293;48.154;7.748;2023-08-01T04:17:58;7.50;;;3.80;;
4742;SDS011;24293;48.154;7.748;2023-08-01T04:20:26;11.40;;;4.10;;
4742;SDS011;24293;48.154;7.748;2023-08-01T04:22:52;9.67;;;3.67;;
4742;SDS011;24293;48.154;7.748;2023-08-01T04:25:19;10.90;;;4.10;;
4742;SDS011;24293;48.154;7.748;2023-08-01T04:27:49;9.03;;;3.53;;
4742;SDS011;24293;48.154;7.748;2023-08-01T04:30:16;7.10;;;3.83;;
4742;SDS011;24293;48.154;7.748;2023-08-01T04:32:43;12.20;;;4.87;;
4742;SDS011;24293;48.154;7.748;2023-08-01T04:35:09;10.63;;;3.97;;
4742;SDS011;24293;48.154;7.748;2023-08-01T04:37:36;7.90;;;4.13;;
4742;SDS011;24293;48.154;7.748;2023-08-01T04:40:02;13.20;;;4.57;;
4742;SDS011;24293;48.154;7.748;2023-08-01T04:42:29;10.97;;;4.60;;
4742;SDS011;24293;48.154;7.748;2023-08-01T04:44:55;8.73;;;3.90;;
4742;SDS011;24293;48.154;7.748;2023-08-01T04:47:23;11.03;;;4.80;;
4742;SDS011;24293;48.154;7.748;2023-08-01T04:49:50;9.60;;;4.00;;
4742;SDS011;24293;48.154;7.748;2023-08-01T04:52:16;9.70;;;4.10;;
4742;SDS011;24293;48.154;7.748;2023-08-01T04:54:43;12.47;;;4.70;;
4742;SDS011;24293;48.154;7.748;2023-08-01T04:57:09;10.27;;;4.30;;
4742;SDS011;24293;48.154;7.748;2023-08-01T04:59:35;11.27;;;4.77;;
4742;SDS011;24293;48.154;7.748;2023-08-01T05:02:04;10.83;;;4.50;;
4742;SDS011;24293;48.154;7.748;2023-08-01T05:04:32;10.63;;;4.53;;
4742;SDS011;24293;48.154;7.748;2023-08-01T05:06:59;14.67;;;4.90;;
4742;SDS011;24293;48.154;7.748;2023-08-01T05:09:26;8.23;;;4.10;;
4742;SDS011;24293;48.154;7.748;2023-08-01T05:11:52;10.40;;;4.20;;
4742;SDS011;24293;48.154;7.748;2023-08-01T05:14:22;9.63;;;5.27;;
4742;SDS011;24293;48.154;7.748;2023-08-01T05:16:55;11.73;;;3.30;;
4742;SDS011;24293;48.154;7.748;2023-08-01T05:19:22;10.40;;;4.03;;
4742;SDS011;24293;48.154;7.748;2023-08-01T05:21:49;7.80;;;4.00;;
4742;SDS011;24293;48.154;7.748;2023-08-01T05:24:16;9.73;;;3.80;;
4742;SDS011;24293;48.154;7.748;2023-08-01T05:26:42;11.97;;;4.63;;
4742;SDS011;24293;48.154;7.748;2023-08-01T05:29:09;12.67;;;4.47;;
4742;SDS011;24293;48.154;7.748;2023-08-01T05:31:35;19.00;;;5.00;;
4742;SDS011;24293;48.154;7.748;2023-08-01T05:34:02;11.37;;;3.93;;
4742;SDS011;24293;48.154;7.748;2023-08-01T05:36:28;9.70;;;4.47;;
4742;SDS011;24293;48.154;7.748;2023-08-01T05:38:59;10.30;;;4.43;;
4742;SDS011;24293;48.154;7.748;2023-08-01T05:41:25;9.90;;;4.63;;
4742;SDS011;24293;48.154;7.748;2023-08-01T05:43:52;9.47;;;4.60;;
4742;SDS011;24293;48.154;7.748;2023-08-01T05:46:22;11.33;;;4.53;;
4742;SDS011;24293;48.154;7.748;2023-08-01T05:48:49;11.30;;;4.73;;
4742;SDS011;24293;48.154;7.748;2023-08-01T05:51:15;11.67;;;4.50;;
4742;SDS011;24293;48.154;7.748;2023-08-01T05:53:42;11.70;;;4.47;;
4742;SDS011;24293;48.154;7.748;2023-08-01T05:56:09;10.50;;;4.70;;
4742;SDS011;24293;48.154;7.748;2023-08-01T05:58:36;10.23;;;4.40;;
4742;SDS011;24293;48.154;7.748;2023-08-01T06:01:05;7.77;;;4.03;;
4742;SDS011;24293;48.154;7.748;2023-08-01T06:03:31;11.13;;;4.60;;
4742;SDS011;24293;48.154;7.748;2023-08-01T06:06:01;14.80;;;5.03;;
4742;SDS011;24293;48.154;7.748;2023-08-01T06:08:27;12.00;;;4.40;;
4742;SDS011;24293;48.154;7.748;2023-08-01T06:10:54;18.20;;;4.97;;
4742;SDS011;24293;48.154;7.748;2023-08-01T06:13:21;8.83;;;4.17;;
4742;SDS011;24293;48.154;7.748;2023-08-01T06:15:48;10.20;;;4.87;;
4742;SDS011;24293;48.154;7.748;2023-08-01T06:18:14;11.10;;;4.27;;
4742;SDS011;24293;48.154;7.748;2023-08-01T06:20:41;10.63;;;4.30;;
4742;SDS011;24293;48.154;7.748;2023-08-01T06:23:07;8.07;;;4.47;;
4742;SDS011;24293;48.154;7.748;2023-08-01T06:25:34;12.43;;;4.70;;
4742;SDS011;24293;48.154;7.748;2023-08-01T06:28:00;13.70;;;4.97;;
4742;SDS011;24293;48.154;7.748;2023-08-01T06:30:28;11.00;;;5.10;;
4742;SDS011;24293;48.154;7.748;2023-08-01T06:32:55;17.20;;;4.47;;
4742;SDS011;24293;48.154;7.748;2023-08-01T06:35:21;11.20;;;4.33;;
4742;SDS011;24293;48.154;7.748;2023-08-01T06:37:48;10.97;;;4.17;;
4742;SDS011;24293;48.154;7.748;2023-08-01T06:40:14;12.80;;;5.67;;
4742;SDS011;24293;48.154;7.748;2023-08-01T06:42:41;10.20;;;5.03;;
4742;SDS011;24293;48.154;7.748;2023-08-01T06:45:08;10.13;;;4.67;;
4742;SDS011;24293;48.154;7.748;2023-08-01T06:47:36;8.63;;;4.30;;
4742;SDS011;24293;48.154;7.748;2023-08-01T06:50:02;11.43;;;5.10;;
4742;SDS011;24293;48.154;7.748;2023-08-01T06:52:30;10.47;;;4.33;;
4742;SDS011;24293;48.154;7.748;2023-08-01T06:54:56;8.40;;;4.47;;
4742;SDS011;24293;48.154;7.748;2023-08-01T06:57:23;9.93;;;4.53;;
4742;SDS011;24293;48.154;7.748;2023-08-01T06:59:49;10.33;;;4.17;;
4742;SDS011;24293;48.154;7.748;2023-08-01T07:02:16;10.70;;;4.77;;
4742;SDS011;24293;48.154;7.748;2023-08-01T07:04:43;9.03;;;3.93;;
4742;SDS011;24293;48.154;7.748;2023-08-01T07:07:10;10.03;;;4.40;;
4742;SDS011;24293;48.154;7.748;2023-08-01T07:09:36;7.90;;;3.97;;
4742;SDS011;24293;48.154;7.748;2023-08-01T07:12:03;8.80;;;3.77;;
4742;SDS011;24293;48.154;7.748;2023-08-01T07:14:30;12.37;;;4.30;;
4742;SDS011;24293;48.154;7.748;2023-08-01T07:16:56;7.70;;;3.63;;
4742;SDS011;24293;48.154;7.748;2023-08-01T07:19:23;15.10;;;5.37;;
4742;SDS011;24293;48.154;7.748;2023-08-01T07:21:51;11.37;;;4.10;;
4742;SDS011;24293;48.154;7.748;2023-08-01T07:24:17;10.90;;;4.40;;
4742;SDS011;24293;48.154;7.748;2023-08-01T07:26:44;8.37;;;3.50;;
4742;SDS011;24293;48.154;7.748;2023-08-01T07:29:11;11.07;;;5.03;;
4742;SDS011;24293;48.154;7.748;2023-08-01T07:31:42;11.97;;;4.50;;
4742;SDS011;24293;48.154;7.748;2023-08-01T07:34:09;9.00;;;3.80;;
4742;SDS011;24293;48.154;7.748;2023-08-01T07:36:36;13.00;;;4.30;;
4742;SDS011;24293;48.154;7.748;2023-08-01T07:39:04;10.70;;;4.00;;
4742;SDS011;24293;48.154;7.748;2023-08-01T07:41:30;12.20;;;4.47;;
4742;SDS011;24293;48.154;7.748;2023-08-01T07:44:04;10.40;;;4.93;;
4742;SDS011;24293;48.154;7.748;2023-08-01T07:46:31;15.97;;;4.60;;
4742;SDS011;24293;48.154;7.748;2023-08-01T07:48:57;10.03;;;4.70;;
4742;SDS011;24293;48.154;7.748;2023-08-01T07:51:24;9.13;;;4.70;;
4742;SDS011;24293;48.154;7.748;2023-08-01T07:53:51;13.93;;;4.60;;
4742;SDS011;24293;48.154;7.748;2023-08-01T07:56:19;11.27;;;4.83;;
4742;SDS011;24293;48.154;7.748;2023-08-01T07:58:46;12.80;;;4.93;;
4742;SDS011;24293;48.154;7.748;2023-08-01T08:01:14;10.50;;;4.60;;
4742;SDS011;24293;48.154;7.748;2023-08-01T08:03:43;12.60;;;4.53;;
4742;SDS011;24293;48.154;7.748;2023-08-01T08:06:09;9.50;;;3.87;;
4742;SDS011;24293;48.154;7.748;2023-08-01T08:08:36;9.73;;;4.33;;
4742;SDS011;24293;48.154;7.748;2023-08-01T08:11:03;13.70;;;4.17;;
4742;SDS011;24293;48.154;7.748;2023-08-01T08:13:31;9.20;;;4.37;;
4742;SDS011;24293;48.154;7.748;2023-08-01T08:15:57;9.13;;;3.87;;
4742;SDS011;24293;48.154;7.748;2023-08-01T08:18:24;7.90;;;4.13;;
4742;SDS011;24293;48.154;7.748;2023-08-01T08:20:51;13.80;;;4.80;;
4742;SDS011;24293;48.154;7.748;2023-08-01T08:23:18;7.43;;;4.30;;
4742;SDS011;24293;48.154;7.748;2023-08-01T08:25:44;8.43;;;3.67;;
4742;SDS011;24293;48.154;7.748;2023-08-01T08:28:12;8.03;;;3.90;;
4742;SDS011;24293;48.154;7.748;2023-08-01T08:30:40;6.60;;;3.33;;
4742;SDS011;24293;48.154;7.748;2023-08-01T08:33:06;7.40;;;3.53;;
4742;SDS011;24293;48.154;7.748;2023-08-01T08:35:33;8.93;;;3.93;;
4742;SDS011;24293;48.154;7.748;2023-08-01T08:38:01;10.43;;;4.00;;
4742;SDS011;24293;48.154;7.748;2023-08-01T08:40:27;12.23;;;3.77;;
4742;SDS011;24293;48.154;7.748;2023-08-01T08:42:54;10.00;;;4.00;;
4742;SDS011;24293;48.154;7.748;2023-08-01T08:45:20;7.40;;;3.67;;
4742;SDS011;24293;48.154;7.748;2023-08-01T08:47:52;7.80;;;3.57;;
4742;SDS011;24293;48.154;7.748;2023-08-01T08:50:19;14.10;;;4.20;;
4742;SDS011;24293;48.154;7.748;2023-08-01T08:52:46;9.17;;;3.60;;
4742;SDS011;24293;48.154;7.748;2023-08-01T08:55:12;7.37;;;3.57;;
4742;SDS011;24293;48.154;7.748;2023-08-01T08:57:39;9.67;;;4.27;;
4742;SDS011;24293;48.154;7.748;2023-08-01T09:00:07;9.70;;;4.13;;
4742;SDS011;24293;48.154;7.748;2023-08-01T09:02:34;6.80;;;3.27;;
4742;SDS011;24293;48.154;7.748;2023-08-01T09:05:04;6.80;;;3.20;;
4742;SDS011;24293;48.154;7.748;2023-08-01T09:07:31;10.37;;;3.67;;
4742;SDS011;24293;48.154;7.748;2023-08-01T09:09:59;9.83;;;3.40;;
4742;SDS011;24293;48.154;7.748;2023-08-01T09:12:26;7.57;;;3.70;;
4742;SDS011;24293;48.154;7.748;2023-08-01T09:14:52;7.20;;;3.30;;
4742;SDS011;24293;48.154;7.748;2023-08-01T09:17:23;9.37;;;3.53;;
4742;SDS011;24293;48.154;7.748;2023-08-01T09:19:54;6.80;;;2.87;;
4742;SDS011;24293;48.154;7.748;2023-08-01T09:22:22;6.63;;;2.73;;
4742;SDS011;24293;48.154;7.748;2023-08-01T09:24:51;8.07;;;3.30;;
4742;SDS011;24293;48.154;7.748;2023-08-01T09:27:20;6.87;;;3.60;;
4742;SDS011;24293;48.154;7.748;2023-08-01T09:29:46;5.87;;;3.10;;
4742;SDS011;24293;48.154;7.748;2023-08-01T09:32:13;6.70;;;2.60;;
4742;SDS011;24293;48.154;7.748;2023-08-01T09:34:41;7.93;;;2.73;;
4742;SDS011;24293;48.154;7.748;2023-08-01T09:37:08;5.10;;;2.30;;
4742;SDS011;24293;48.154;7.748;2023-08-01T09:39:36;6.83;;;3.23;;
4742;SDS011;24293;48.154;7.748;2023-08-01T09:42:03;6.70;;;2.77;;
4742;SDS011;24293;48.154;7.748;2023-08-01T09:44:30;6.10;;;2.70;;
4742;SDS011;24293;48.154;7.748;2023-08-01T09:46:57;5.80;;;2.63;;
4742;SDS011;24293;48.154;7.748;2023-08-01T09:49:24;7.70;;;3.17;;
4742;SDS011;24293;48.154;7.748;2023-08-01T09:51:50;7.87;;;2.97;;
4742;SDS011;24293;48.154;7.748;2023-08-01T09:54:17;6.97;;;2.53;;
4742;SDS011;24293;48.154;7.748;2023-08-01T09:56:45;9.07;;;2.97;;
4742;SDS011;24293;48.154;7.748;2023-08-01T09:59:13;7.00;;;3.10;;
4742;SDS011;24293;48.154;7.748;2023-08-01T10:01:43;9.90;;;2.97;;
4742;SDS011;24293;48.154;7.748;2023-08-01T10:04:10;8.20;;;2.60;;
4742;SDS011;24293;48.154;7.748;2023-08-01T10:06:37;9.73;;;2.93;;
4742;SDS011;24293;48.154;7.748;2023-08-01T10:09:09;9.23;;;3.00;;
4742;SDS011;24293;48.154;7.748;2023-08-01T10:11:36;8.23;;;2.87;;
4742;SDS011;24293;48.154;7.748;2023-08-01T10:14:07;7.00;;;2.80;;
4742;SDS011;24293;48.154;7.748;2023-08-01T10:16:35;9.27;;;3.07;;
4742;SDS011;24293;48.154;7.748;2023-08-01T10:19:02;7.70;;;2.50;;
4742;SDS011;24293;48.154;7.748;2023-08-01T10:21:29;6.77;;;2.63;;
4742;SDS011;24293;48.154;7.748;2023-08-01T10:23:55;5.90;;;2.37;;
4742;SDS011;24293;48.154;7.748;2023-08-01T10:26:25;6.90;;;2.43;;
4742;SDS011;24293;48.154;7.748;2023-08-01T10:28:53;9.73;;;2.53;;
4742;SDS011;24293;48.154;7.748;2023-08-01T10:31:22;4.67;;;2.37;;
4742;SDS011;24293;48.154;7.748;2023-08-01T10:33:49;9.53;;;3.50;;
4742;SDS011;24293;48.154;7.748;2023-08-01T10:36:16;6.17;;;2.03;;
4742;SDS011;24293;48.154;7.748;2023-08-01T10:38:46;7.70;;;2.40;;
4742;SDS011;24293;48.154;7.748;2023-08-01T10:41:20;7.60;;;2.33;;
4742;SDS011;24293;48.154;7.748;2023-08-01T10:43:46;5.80;;;2.27;;
4742;SDS011;24293;48.154;7.748;2023-08-01T10:46:13;4.77;;;2.00;;
4742;SDS011;24293;48.154;7.748;2023-08-01T10:48:48;6.30;;;2.60;;
4742;SDS011;24293;48.154;7.748;2023-08-01T10:51:15;5.80;;;2.43;;
4742;SDS011;24293;48.154;7.748;2023-08-01T10:53:42;4.60;;;1.80;;
4742;SDS011;24293;48.154;7.748;2023-08-01T10:56:14;10.03;;;2.00;;
4742;SDS011;24293;48.154;7.748;2023-08-01T10:58:41;4.67;;;1.80;;
4742;SDS011;24293;48.154;7.748;2023-08-01T11:01:08;4.10;;;1.50;;
4742;SDS011;24293;48.154;7.748;2023-08-01T11:03:34;5.37;;;2.20;;
4742;SDS011;24293;48.154;7.748;2023-08-01T11:06:02;4.80;;;1.50;;
4742;SDS011;24293;48.154;7.748;2023-08-01T11:08:33;6.07;;;1.67;;
4742;SDS011;24293;48.154;7.748;2023-08-01T11:11:00;4.80;;;2.00;;
4742;SDS011;24293;48.154;7.748;2023-08-01T11:13:28;4.77;;;1.60;;
4742;SDS011;24293;48.154;7.748;2023-08-01T11:15:54;7.50;;;1.83;;
4742;SDS011;24293;48.154;7.748;2023-08-01T11:18:21;6.07;;;1.77;;
4742;SDS011;24293;48.154;7.748;2023-08-01T11:20:48;3.70;;;1.43;;
4742;SDS011;24293;48.154;7.748;2023-08-01T11:23:16;7.13;;;1.50;;
4742;SDS011;24293;48.154;7.748;2023-08-01T11:25:43;4.60;;;1.60;;
4742;SDS011;24293;48.154;7.748;2023-08-01T11:28:11;3.83;;;1.60;;
4742;SDS011;24293;48.154;7.748;2023-08-01T11:30:38;4.80;;;1.63;;
4742;SDS011;24293;48.154;7.748;2023-08-01T11:33:16;7.03;;;1.30;;
4742;SDS011;24293;48.154;7.748;2023-08-01T11:35:43;6.23;;;1.43;;
4742;SDS011;24293;48.154;7.748;2023-08-01T11:38:09;3.70;;;1.07;;
4742;SDS011;24293;48.154;7.748;2023-08-01T11:40:38;3.70;;;1.30;;
4742;SDS011;24293;48.154;7.748;2023-08-01T11:43:04;4.20;;;1.30;;
4742;SDS011;24293;48.154;7.748;2023-08-01T11:45:31;3.30;;;1.20;;
4742;SDS011;24293;48.154;7.748;2023-08-01T11:47:58;4.10;;;1.10;;
4742;SDS011;24293;48.154;7.748;2023-08-01T11:50:25;5.07;;;1.13;;
4742;SDS011;24293;48.154;7.748;2023-08-01T11:52:52;5.43;;;1.50;;
4742;SDS011;24293;48.154;7.748;2023-08-01T11:55:19;5.53;;;1.30;;
4742;SDS011;24293;48.154;7.748;2023-08-01T11:57:52;4.00;;;1.40;;
4742;SDS011;24293;48.154;7.748;2023-08-01T12:00:20;6.80;;;1.40;;
4742;SDS011;24293;48.154;7.748;2023-08-01T12:02:47;4.00;;;1.03;;
4742;SDS011;24293;48.154;7.748;2023-08-01T12:05:20;5.10;;;1.50;;
4742;SDS011;24293;48.154;7.748;2023-08-01T12:07:47;3.33;;;1.00;;
4742;SDS011;24293;48.154;7.748;2023-08-01T12:10:13;3.90;;;1.20;;
4742;SDS011;24293;48.154;7.748;2023-08-01T12:12:43;3.90;;;1.40;;
4742;SDS011;24293;48.154;7.748;2023-08-01T12:15:16;3.27;;;1.20;;
4742;SDS011;24293;48.154;7.748;2023-08-01T12:17:43;3.97;;;1.50;;
4742;SDS011;24293;48.154;7.748;2023-08-01T12:20:10;4.37;;;1.20;;
4742;SDS011;24293;48.154;7.748;2023-08-01T12:22:36;3.50;;;1.30;;
4742;SDS011;24293;48.154;7.748;2023-08-01T12:25:03;6.00;;;1.13;;
4742;SDS011;24293;48.154;7.748;2023-08-01T12:27:32;3.63;;;1.07;;
4742;SDS011;24293;48.154;7.748;2023-08-01T12:30:01;7.57;;;1.20;;
4742;SDS011;24293;48.154;7.748;2023-08-01T12:32:28;3.83;;;1.20;;
4742;SDS011;24293;48.154;7.748;2023-08-01T12:34:56;3.10;;;0.93;;
4742;SDS011;24293;48.154;7.748;2023-08-01T12:37:23;3.10;;;0.93;;
4742;SDS011;24293;48.154;7.748;2023-08-01T12:39:49;3.27;;;1.10;;
4742;SDS011;24293;48.154;7.748;2023-08-01T12:42:18;3.37;;;1.00;;
4742;SDS011;24293;48.154;7.748;2023-08-01T12:44:46;3.23;;;1.10;;
4742;SDS011;24293;48.154;7.748;2023-08-01T12:47:12;3.30;;;1.03;;
4742;SDS011;24293;48.154;7.748;2023-08-01T12:49:40;3.93;;;1.27;;
4742;SDS011;24293;48.154;7.748;2023-08-01T12:52:06;2.83;;;0.90;;
4742;SDS011;24293;48.154;7.748;2023-08-01T12:54:33;3.30;;;1.10;;
4742;SDS011;24293;48.154;7.748;2023-08-01T12:56:59;3.60;;;1.20;;
4742;SDS011;24293;48.154;7.748;2023-08-01T12:59:26;3.03;;;1.00;;
4742;SDS011;24293;48.154;7.748;2023-08-01T13:01:53;3.20;;;1.03;;
4742;SDS011;24293;48.154;7.748;2023-08-01T13:04:19;3.60;;;1.20;;
4742;SDS011;24293;48.154;7.748;2023-08-01T13:06:47;3.50;;;1.23;;
4742;SDS011;24293;48.154;7.748;2023-08-01T13:09:15;5.27;;;1.30;;
4742;SDS011;24293;48.154;7.748;2023-08-01T13:11:42;4.70;;;1.10;;
4742;SDS011;24293;48.154;7.748;2023-08-01T13:14:11;5.90;;;1.07;;
4742;SDS011;24293;48.154;7.748;2023-08-01T13:16:38;3.60;;;1.10;;
4742;SDS011;24293;48.154;7.748;2023-08-01T13:19:04;4.50;;;1.60;;
4742;SDS011;24293;48.154;7.748;2023-08-01T13:21:31;6.70;;;1.03;;
4742;SDS011;24293;48.154;7.748;2023-08-01T13:24:00;4.90;;;1.47;;
4742;SDS011;24293;48.154;7.748;2023-08-01T13:26:30;3.23;;;1.00;;
4742;SDS011;24293;48.154;7.748;2023-08-01T13:28:58;3.23;;;1.20;;
4742;SDS011;24293;48.154;7.748;2023-08-01T13:31:27;3.33;;;1.03;;
4742;SDS011;24293;48.154;7.748;2023-08-01T13:33:54;3.13;;;1.10;;
4742;SDS011;24293;48.154;7.748;2023-08-01T13:36:22;3.10;;;0.93;;
4742;SDS011;24293;48.154;7.748;2023-08-01T13:38:49;3.20;;;1.03;;
4742;SDS011;24293;48.154;7.748;2023-08-01T13:41:19;3.73;;;1.20;;
4742;SDS011;24293;48.154;7.748;2023-08-01T13:43:46;3.10;;;1.00;;
4742;SDS011;24293;48.154;7.748;2023-08-01T13:46:14;3.43;;;1.03;;
4742;SDS011;24293;48.154;7.748;2023-08-01T13:48:44;3.00;;;0.90;;
4742;SDS011;24293;48.154;7.748;2023-08-01T13:51:11;3.47;;;1.10;;
4742;SDS011;24293;48.154;7.748;2023-08-01T13:53:37;3.87;;;1.30;;
4742;SDS011;24293;48.154;7.748;2023-08-01T13:56:06;4.30;;;1.10;;
4742;SDS011;24293;48.154;7.748;2023-08-01T13:58:33;3.30;;;1.10;;
4742;SDS011;24293;48.154;7.748;2023-08-01T14:01:04;3.57;;;1.20;;
4742;SDS011;24293;48.154;7.748;2023-08-01T14:03:32;3.10;;;1.10;;
4742;SDS011;24293;48.154;7.748;2023-08-01T14:06:05;5.53;;;1.20;;
4742;SDS011;24293;48.154;7.748;2023-08-01T14:08:31;3.20;;;0.97;;
4742;SDS011;24293;48.154;7.748;2023-08-01T14:10:58;3.60;;;1.27;;
4742;SDS011;24293;48.154;7.748;2023-08-01T14:13:24;6.00;;;1.30;;
4742;SDS011;24293;48.154;7.748;2023-08-01T14:15:52;5.47;;;1.10;;
4742;SDS011;24293;48.154;7.748;2023-08-01T14:18:19;4.00;;;0.93;;
4742;SDS011;24293;48.154;7.748;2023-08-01T14:20:45;3.80;;;1.13;;
4742;SDS011;24293;48.154;7.748;2023-08-01T14:23:12;3.80;;;0.97;;
4742;SDS011;24293;48.154;7.748;2023-08-01T14:25:38;4.20;;;1.07;;
4742;SDS011;24293;48.154;7.748;2023-08-01T14:28:05;3.67;;;1.17;;
4742;SDS011;24293;48.154;7.748;2023-08-01T14:30:31;3.47;;;1.23;;
4742;SDS011;24293;48.154;7.748;2023-08-01T14:33:00;3.40;;;1.07;;
4742;SDS011;24293;48.154;7.748;2023-08-01T14:35:27;4.10;;;1.40;;
4742;SDS011;24293;48.154;7.748;2023-08-01T14:37:53;3.53;;;1.33;;
4742;SDS011;24293;48.154;7.748;2023-08-01T14:40:20;4.73;;;1.47;;
4742;SDS011;24293;48.154;7.748;2023-08-01T14:42:46;6.27;;;2.20;;
4742;SDS011;24293;48.154;7.748;2023-08-01T14:45:13;4.60;;;1.70;;
4742;SDS011;24293;48.154;7.748;2023-08-01T14:47:40;6.53;;;2.50;;
4742;SDS011;24293;48.154;7.748;2023-08-01T14:50:09;3.20;;;1.10;;
4742;SDS011;24293;48.154;7.748;2023-08-01T14:52:36;5.20;;;1.10;;
4742;SDS011;24293;48.154;7.748;2023-08-01T14:55:02;6.53;;;2.80;;
4742;SDS011;24293;48.154;7.748;2023-08-01T14:57:29;4.87;;;1.90;;